Time;durP1;ratioP1;P1;durP2;ratioP2;P2;SDS_P1;SDS_P2;PMS_P1;PMS_P2;Temp;Humidity;BMP_temperature;BMP_pressure;BME280_temperature;BME280_humidity;BME280_pressure;Samples;Min_cycle;Max_cycle;Signal;HPM_P1;HPM_P2
2024/03/02 00:01:10;;;;;;;0.77;0.55;;;7.50;99.90;;;;;;6183927;23;20017;-89
2024/03/02 00:03:40;;;;;;;4.32;1.10;;;7.50;99.90;;;;;;6181573;23;20013;-90
2024/03/02 00:06:07;;;;;;;3.15;1.13;;;7.40;99.90;;;;;;6182005;23;20051;-89
2024/03/02 00:08:33;;;;;;;2.55;1.10;;;7.50;99.90;;;;;;6184226;23;20723;-90
2024/03/02 00:10:59;;;;;;;1.40;0.93;;;7.50;99.90;;;;;;6185270;23;20066;-91
2024/03/02 00:13:24;;;;;;;4.05;0.98;;;7.50;99.90;;;;;;6185085;23;20382;-90
2024/03/02 00:15:53;;;;;;;2.33;1.25;;;7.40;99.90;;;;;;6184700;23;20017;-90
2024/03/02 00:18:20;;;;;;;3.47;1.15;;;7.50;99.90;;;;;;6182547;23;20013;-91
2024/03/02 00:20:46;;;;;;;1.05;0.75;;;7.50;99.90;;;;;;6209773;23;20332;-90
2024/03/02 00:23:15;;;;;;;1.20;0.80;;;7.60;99.90;;;;;;6185940;23;20087;-91
2024/03/02 00:25:43;;;;;;;0.90;0.75;;;7.60;99.90;;;;;;6184830;23;20078;-90
2024/03/02 00:28:18;;;;;;;1.60;0.93;;;7.70;99.90;;;;;;6185341;23;20000;-91
2024/03/02 00:30:57;;;;;;;2.05;1.00;;;7.80;99.90;;;;;;6211418;23;20107;-91
2024/03/02 00:33:23;;;;;;;3.38;1.00;;;7.60;99.90;;;;;;6186417;23;20469;-90
2024/03/02 00:35:49;;;;;;;2.00;1.17;;;7.70;99.90;;;;;;6187437;23;20020;-91
2024/03/02 00:38:15;;;;;;;1.85;1.40;;;7.60;99.90;;;;;;6182913;23;20062;-91
2024/03/02 00:40:44;;;;;;;1.13;0.68;;;7.70;99.90;;;;;;6187858;23;20021;-91
2024/03/02 00:43:44;;;;;;;1.88;0.77;;;7.70;99.90;;;;;;6186314;23;20016;-90
2024/03/02 00:46:11;;;;;;;1.73;1.05;;;7.80;99.90;;;;;;6238022;23;20016;-91
2024/03/02 00:48:37;;;;;;;1.75;0.90;;;7.70;99.90;;;;;;6190225;23;20052;-89
2024/03/02 00:51:04;;;;;;;2.03;0.80;;;7.70;99.90;;;;;;6186969;23;20016;-89
2024/03/02 00:53:30;;;;;;;2.35;1.10;;;7.80;99.90;;;;;;6211795;23;20370;-88
2024/03/02 00:55:55;;;;;;;3.15;0.88;;;7.70;99.90;;;;;;6182253;23;20433;-90
2024/03/02 00:58:21;;;;;;;2.53;0.82;;;7.70;99.90;;;;;;6187016;23;20017;-90
2024/03/02 01:00:50;;;;;;;1.35;0.80;;;7.70;99.90;;;;;;6183840;23;20017;-90
2024/03/02 01:03:16;;;;;;;1.02;0.90;;;7.80;99.90;;;;;;6187250;23;20513;-90
2024/03/02 01:05:42;;;;;;;3.90;1.02;;;7.90;99.90;;;;;;6180721;23;20012;-89
2024/03/02 01:08:08;;;;;;;2.83;1.10;;;7.90;99.90;;;;;;6183422;23;20067;-88
2024/03/02 01:10:35;;;;;;;3.45;2.45;;;7.80;99.90;;;;;;6181569;23;20779;-90
2024/03/02 01:13:01;;;;;;;1.90;1.17;;;7.90;99.90;;;;;;6182775;23;20020;-91
2024/03/02 01:15:28;;;;;;;0.65;0.50;;;7.90;99.90;;;;;;6157603;23;20028;-90
2024/03/02 01:17:54;;;;;;;4.18;1.17;;;7.90;99.90;;;;;;6182112;23;20012;-90
2024/03/02 01:20:19;;;;;;;1.13;0.80;;;8.00;99.90;;;;;;6183166;23;20016;-90
2024/03/02 01:22:45;;;;;;;1.05;0.45;;;8.00;99.90;;;;;;6184609;23;20335;-90
2024/03/02 01:25:11;;;;;;;3.03;1.15;;;8.20;99.90;;;;;;6184034;23;20013;-90
2024/03/02 01:27:36;;;;;;;2.42;1.17;;;8.10;99.90;;;;;;6208355;23;20099;-90
2024/03/02 01:30:02;;;;;;;0.77;0.60;;;8.10;99.90;;;;;;6186727;23;20004;-89
2024/03/02 01:32:29;;;;;;;2.33;0.90;;;8.00;99.90;;;;;;6184993;23;20024;-91
2024/03/02 01:34:55;;;;;;;1.40;0.80;;;8.20;99.90;;;;;;6186029;23;20012;-89
2024/03/02 01:37:21;;;;;;;1.75;0.85;;;8.20;99.90;;;;;;6186154;23;20013;-90
2024/03/02 01:39:46;;;;;;;0.85;0.57;;;8.20;99.90;;;;;;6184020;23;20013;-90
2024/03/02 01:42:12;;;;;;;1.38;0.60;;;8.20;99.90;;;;;;6184178;23;20025;-89
2024/03/02 01:44:37;;;;;;;1.55;0.80;;;8.30;99.90;;;;;;6180582;23;20099;-90
2024/03/02 01:47:03;;;;;;;4.00;1.15;;;8.30;99.90;;;;;;6183839;23;20062;-90
2024/03/02 01:49:29;;;;;;;2.53;0.77;;;8.30;99.90;;;;;;6186452;23;20021;-90
2024/03/02 01:51:54;;;;;;;1.48;0.75;;;8.20;99.90;;;;;;6187446;23;20111;-90
2024/03/02 01:54:20;;;;;;;3.17;0.90;;;8.30;99.90;;;;;;6183901;23;20017;-90
2024/03/02 01:56:45;;;;;;;1.58;0.70;;;8.20;99.90;;;;;;6185349;23;20351;-90
2024/03/02 01:59:12;;;;;;;1.15;0.80;;;8.20;99.90;;;;;;6185368;23;20067;-90
2024/03/02 02:01:38;;;;;;;2.42;0.70;;;8.20;99.90;;;;;;6184800;23;20354;-90
2024/03/02 02:04:04;;;;;;;1.92;0.75;;;8.10;99.90;;;;;;6184888;23;20012;-90
2024/03/02 02:06:32;;;;;;;1.27;0.77;;;8.10;99.90;;;;;;6188196;23;20021;-90
2024/03/02 02:08:58;;;;;;;5.28;1.25;;;8.10;99.90;;;;;;6154914;23;20378;-92
2024/03/02 02:11:26;;;;;;;0.95;0.60;;;8.10;99.90;;;;;;6153656;23;20028;-90
2024/03/02 02:13:52;;;;;;;3.00;0.93;;;8.00;99.90;;;;;;6155190;23;20043;-91
2024/03/02 02:16:17;;;;;;;1.10;0.73;;;8.00;99.90;;;;;;6153381;23;20041;-90
2024/03/02 02:18:46;;;;;;;2.08;0.80;;;7.90;99.90;;;;;;6178357;23;20021;-90
2024/03/02 02:21:11;;;;;;;1.83;0.75;;;8.00;99.90;;;;;;6155395;23;19993;-91
2024/03/02 02:23:37;;;;;;;5.00;0.70;;;8.00;99.90;;;;;;6153011;23;20078;-91
2024/03/02 02:26:03;;;;;;;1.58;0.77;;;8.00;99.90;;;;;;6155514;23;20013;-90
2024/03/02 02:28:29;;;;;;;0.60;0.43;;;8.00;99.90;;;;;;6154392;23;20044;-91
2024/03/02 02:30:56;;;;;;;1.85;0.77;;;8.00;99.90;;;;;;6156380;23;20071;-90
2024/03/02 02:33:22;;;;;;;3.40;0.80;;;8.00;99.90;;;;;;6158288;23;20013;-90
2024/03/02 02:35:47;;;;;;;0.93;0.70;;;8.00;99.90;;;;;;6150122;23;20040;-90
2024/03/02 02:38:13;;;;;;;1.55;0.80;;;8.10;99.90;;;;;;6134264;23;20452;-91
2024/03/02 02:40:38;;;;;;;2.22;0.80;;;8.00;99.90;;;;;;6160325;23;20414;-90
2024/03/02 02:43:04;;;;;;;2.78;0.75;;;8.00;99.90;;;;;;6161344;23;20040;-91
2024/03/02 02:45:30;;;;;;;1.13;0.60;;;8.10;99.90;;;;;;6160531;23;20016;-90
2024/03/02 02:47:57;;;;;;;1.10;0.63;;;8.10;99.90;;;;;;6155358;23;20019;-90
2024/03/02 02:50:22;;;;;;;1.30;0.50;;;8.20;99.90;;;;;;6157017;23;20075;-91
2024/03/02 02:52:48;;;;;;;2.70;0.80;;;8.20;99.90;;;;;;6150395;23;20108;-91
2024/03/02 02:55:15;;;;;;;1.20;0.65;;;8.20;99.90;;;;;;6168087;23;20012;-90
2024/03/02 02:57:41;;;;;;;2.15;0.65;;;8.20;99.90;;;;;;6195923;23;20065;-91
2024/03/02 03:00:14;;;;;;;1.73;0.80;;;8.20;99.90;;;;;;6197496;23;20008;-91
2024/03/02 03:02:43;;;;;;;1.98;1.00;;;8.20;99.90;;;;;;6195287;23;20011;-91
2024/03/02 03:05:13;;;;;;;4.53;0.90;;;8.20;99.90;;;;;;6193530;23;20008;-91
2024/03/02 03:07:39;;;;;;;1.10;0.77;;;8.20;99.90;;;;;;6219504;23;20450;-90
2024/03/02 03:10:06;;;;;;;1.23;0.68;;;8.30;99.90;;;;;;6185982;23;20229;-89
2024/03/02 03:12:36;;;;;;;3.25;1.08;;;8.20;99.90;;;;;;6199039;23;20046;-91
2024/03/02 03:15:04;;;;;;;1.48;0.75;;;8.30;99.90;;;;;;6193413;23;20012;-91
2024/03/02 03:17:30;;;;;;;2.25;0.85;;;8.30;99.90;;;;;;6196070;23;20051;-92
2024/03/02 03:19:55;;;;;;;2.38;0.95;;;8.30;99.90;;;;;;6194949;23;20016;-91
2024/03/02 03:22:21;;;;;;;3.15;0.68;;;8.30;99.90;;;;;;6197266;23;20064;-92
2024/03/02 03:24:46;;;;;;;2.85;0.68;;;8.40;99.90;;;;;;6194633;23;20010;-91
2024/03/02 03:27:12;;;;;;;3.00;1.00;;;8.40;99.90;;;;;;6196266;23;20008;-91
2024/03/02 03:29:38;;;;;;;1.75;0.80;;;8.30;99.90;;;;;;6196062;23;20003;-91
2024/03/02 03:32:04;;;;;;;1.55;0.70;;;8.40;99.90;;;;;;6196136;23;20012;-91
2024/03/02 03:34:32;;;;;;;3.50;0.75;;;8.40;99.90;;;;;;6198363;23;20012;-92
2024/03/02 03:36:58;;;;;;;1.17;0.88;;;8.40;99.90;;;;;;6194492;23;20043;-90
2024/03/02 03:39:24;;;;;;;1.27;0.90;;;8.40;99.90;;;;;;6222975;23;20008;-91
2024/03/02 03:41:49;;;;;;;1.92;0.68;;;8.40;99.90;;;;;;6202299;23;20038;-90
2024/03/02 03:44:15;;;;;;;1.95;0.80;;;8.40;99.90;;;;;;6193703;23;20012;-91
2024/03/02 03:46:41;;;;;;;1.73;0.73;;;8.40;99.90;;;;;;6197059;23;20015;-93
2024/03/02 03:49:07;;;;;;;0.80;0.65;;;8.40;99.90;;;;;;6191490;23;20032;-90
2024/03/02 03:51:33;;;;;;;3.88;1.00;;;8.40;99.90;;;;;;6185699;23;20016;-91
2024/03/02 03:53:59;;;;;;;2.03;0.80;;;8.40;99.90;;;;;;6211894;23;20020;-91
2024/03/02 03:56:25;;;;;;;3.58;0.82;;;8.50;99.90;;;;;;6187046;23;20027;-90
2024/03/02 03:58:50;;;;;;;3.03;1.02;;;8.40;99.90;;;;;;6186551;23;20004;-90
2024/03/02 04:01:16;;;;;;;2.88;0.98;;;8.40;99.90;;;;;;6187807;23;20062;-91
2024/03/02 04:03:41;;;;;;;2.40;0.70;;;8.40;99.90;;;;;;6156974;23;20005;-90
2024/03/02 04:06:07;;;;;;;3.72;1.02;;;8.30;99.90;;;;;;6186973;23;20016;-90
2024/03/02 04:08:33;;;;;;;2.58;0.75;;;8.40;99.90;;;;;;6187532;23;20069;-91
2024/03/02 04:10:58;;;;;;;1.40;0.90;;;8.30;99.90;;;;;;6185087;23;20337;-92
2024/03/02 04:13:24;;;;;;;0.85;0.73;;;8.30;99.90;;;;;;6186765;23;20576;-90
2024/03/02 04:15:49;;;;;;;0.82;0.60;;;8.40;99.90;;;;;;6186428;23;20010;-90
2024/03/02 04:18:16;;;;;;;2.10;1.27;;;8.30;99.90;;;;;;6187357;23;20095;-91
2024/03/02 04:20:41;;;;;;;3.80;0.90;;;8.40;99.90;;;;;;6187031;23;20008;-91
2024/03/02 04:23:07;;;;;;;1.55;0.80;;;8.30;99.90;;;;;;6186250;23;20023;-91
2024/03/02 04:25:33;;;;;;;1.58;0.70;;;8.40;99.90;;;;;;6186871;23;20012;-90
2024/03/02 04:27:58;;;;;;;0.70;0.70;;;8.30;99.90;;;;;;6186042;23;20018;-91
2024/03/02 04:30:25;;;;;;;0.98;0.73;;;8.30;99.90;;;;;;6184946;23;20104;-91
2024/03/02 04:32:50;;;;;;;0.68;0.63;;;8.40;99.90;;;;;;6186906;23;20458;-90
2024/03/02 04:35:16;;;;;;;1.95;0.75;;;8.30;99.90;;;;;;6185635;23;20040;-90
2024/03/02 04:37:42;;;;;;;0.93;0.70;;;8.40;99.90;;;;;;6187176;23;20338;-90
2024/03/02 04:40:08;;;;;;;0.98;0.70;;;8.30;99.90;;;;;;6181414;23;20001;-90
2024/03/02 04:42:34;;;;;;;2.33;1.00;;;8.30;99.90;;;;;;6182392;23;20012;-90
2024/03/02 04:45:00;;;;;;;1.65;0.70;;;8.40;99.90;;;;;;6185885;23;20015;-90
2024/03/02 04:47:26;;;;;;;1.20;0.88;;;8.30;99.90;;;;;;6184857;23;20016;-90
2024/03/02 04:49:51;;;;;;;4.10;0.90;;;8.20;99.90;;;;;;6187439;23;20642;-91
2024/03/02 04:52:17;;;;;;;0.95;0.63;;;8.30;99.90;;;;;;6187862;23;20247;-91
2024/03/02 04:57:27;;;;;;;3.83;0.80;;;8.10;99.90;;;;;;6217503;23;20020;-90
2024/03/02 04:59:53;;;;;;;1.35;0.80;;;8.00;99.90;;;;;;6190593;23;20009;-90
2024/03/02 05:02:18;;;;;;;2.08;0.95;;;8.10;99.90;;;;;;6187632;23;20004;-91
2024/03/02 05:04:44;;;;;;;1.85;0.70;;;7.90;99.90;;;;;;6190192;23;20015;-91
2024/03/02 05:07:10;;;;;;;0.95;0.73;;;8.00;99.90;;;;;;6190873;23;20008;-91
2024/03/02 05:09:35;;;;;;;1.42;1.00;;;7.90;99.90;;;;;;6192852;23;20008;-91
2024/03/02 05:14:46;;;;;;;1.02;0.80;;;7.80;99.90;;;;;;6218598;23;20046;-92
2024/03/02 05:17:11;;;;;;;1.95;0.70;;;7.70;99.90;;;;;;6184275;23;20027;-92
2024/03/02 05:19:38;;;;;;;3.97;1.00;;;7.90;99.90;;;;;;6193586;23;20004;-92
2024/03/02 05:22:03;;;;;;;2.35;0.75;;;7.80;99.90;;;;;;6191403;23;20005;-91
2024/03/02 05:24:29;;;;;;;0.88;0.63;;;7.80;99.90;;;;;;6188462;23;20016;-90
2024/03/02 05:26:54;;;;;;;2.55;0.80;;;7.80;99.90;;;;;;6190348;23;20081;-92
2024/03/02 05:29:20;;;;;;;3.45;1.00;;;7.70;99.90;;;;;;6190254;23;20027;-91
2024/03/02 05:31:46;;;;;;;1.17;0.90;;;7.70;99.90;;;;;;6189485;23;20008;-90
2024/03/02 05:34:12;;;;;;;1.40;1.02;;;7.60;99.90;;;;;;6188247;23;20016;-90
2024/03/02 05:36:38;;;;;;;1.67;0.95;;;7.60;99.90;;;;;;6189935;23;20012;-91
2024/03/02 05:39:06;;;;;;;1.85;0.98;;;7.50;99.90;;;;;;6189682;23;20018;-90
2024/03/02 05:41:32;;;;;;;2.63;1.10;;;7.60;99.90;;;;;;6188698;23;20045;-90
2024/03/02 05:43:57;;;;;;;1.08;0.77;;;7.50;99.90;;;;;;6190339;23;20004;-90
2024/03/02 05:46:23;;;;;;;1.40;1.15;;;7.50;99.90;;;;;;6190158;23;20023;-90
2024/03/02 05:48:50;;;;;;;1.60;0.90;;;7.40;99.90;;;;;;6199027;22;20012;-90
2024/03/02 05:51:15;;;;;;;1.48;0.73;;;7.40;99.90;;;;;;6187317;23;20465;-90
2024/03/02 05:53:41;;;;;;;1.95;1.05;;;7.40;99.90;;;;;;6184842;23;20070;-91
2024/03/02 05:56:07;;;;;;;1.73;1.00;;;7.40;99.90;;;;;;6188979;23;20036;-91
2024/03/02 06:01:22;;;;;;;2.70;1.33;;;7.20;99.90;;;;;;6215626;23;20014;-90
2024/03/02 06:03:49;;;;;;;1.30;0.77;;;7.30;99.90;;;;;;6188891;23;20019;-89
2024/03/02 06:06:14;;;;;;;2.72;0.98;;;7.30;99.90;;;;;;6188978;23;20062;-89
2024/03/02 06:08:40;;;;;;;1.58;1.00;;;7.10;99.90;;;;;;6188113;23;20008;-90
2024/03/02 06:11:05;;;;;;;1.33;0.80;;;7.20;99.90;;;;;;6190200;23;20012;-89
2024/03/02 06:13:31;;;;;;;4.72;1.00;;;7.30;99.90;;;;;;6189703;23;20026;-90
2024/03/02 06:15:56;;;;;;;6.85;1.30;;;7.20;99.90;;;;;;6214324;23;20023;-89
2024/03/02 06:18:22;;;;;;;2.00;1.10;;;7.20;99.90;;;;;;6186144;23;20505;-90
2024/03/02 06:20:49;;;;;;;2.63;1.38;;;7.10;99.90;;;;;;6184210;23;20024;-90
2024/03/02 06:23:14;;;;;;;3.97;1.65;;;7.00;99.90;;;;;;6185974;23;20039;-90
2024/03/02 06:25:40;;;;;;;2.80;1.10;;;6.90;99.90;;;;;;6168071;23;20009;-90
2024/03/02 06:28:07;;;;;;;2.22;1.15;;;7.10;99.90;;;;;;6182930;23;20016;-89
2024/03/02 06:30:32;;;;;;;1.45;1.00;;;6.90;99.90;;;;;;6187731;23;20015;-90
2024/03/02 06:32:58;;;;;;;2.28;1.08;;;6.80;99.90;;;;;;6187251;23;20016;-90
2024/03/02 06:35:24;;;;;;;2.92;1.50;;;6.90;99.90;;;;;;6188586;23;20023;-91
2024/03/02 06:37:49;;;;;;;1.42;0.82;;;6.80;99.90;;;;;;6188019;23;20348;-90
2024/03/02 06:40:15;;;;;;;1.92;1.35;;;6.90;99.90;;;;;;6186342;23;20415;-89
2024/03/02 06:42:41;;;;;;;2.45;1.10;;;6.90;99.90;;;;;;6186885;23;20019;-90
2024/03/02 06:45:06;;;;;;;3.83;1.08;;;6.80;99.90;;;;;;6184406;23;20012;-90
2024/03/02 06:47:32;;;;;;;2.20;1.38;;;6.90;99.90;;;;;;6186475;23;20464;-90
2024/03/02 06:49:58;;;;;;;2.13;1.10;;;6.90;99.90;;;;;;6188312;23;20015;-91
2024/03/02 06:52:24;;;;;;;2.78;1.45;;;7.00;99.90;;;;;;6186578;23;20023;-90
2024/03/02 06:54:50;;;;;;;3.15;1.00;;;6.90;99.90;;;;;;6181941;23;20347;-90
2024/03/02 06:57:19;;;;;;;2.97;1.38;;;6.90;99.90;;;;;;6188398;23;20013;-91
2024/03/02 06:59:45;;;;;;;2.25;1.52;;;7.00;99.90;;;;;;6189652;23;20606;-90
2024/03/02 07:02:10;;;;;;;4.10;1.65;;;7.00;99.90;;;;;;6215856;23;20032;-89
2024/03/02 07:04:36;;;;;;;2.90;1.65;;;6.90;99.90;;;;;;6187404;23;20031;-89
2024/03/02 07:07:02;;;;;;;2.10;1.20;;;6.80;99.90;;;;;;6186154;23;20040;-89
2024/03/02 07:09:29;;;;;;;1.77;1.45;;;6.90;99.90;;;;;;6186516;23;20008;-89
2024/03/02 07:11:54;;;;;;;4.93;1.88;;;7.00;99.90;;;;;;6187510;23;20385;-90
2024/03/02 07:14:20;;;;;;;3.35;2.00;;;7.10;99.90;;;;;;6210883;23;20095;-89
2024/03/02 07:16:45;;;;;;;3.22;1.70;;;7.10;99.90;;;;;;6184691;23;20311;-90
2024/03/02 07:19:11;;;;;;;3.58;1.23;;;7.10;99.90;;;;;;6184595;23;20047;-89
2024/03/02 07:21:37;;;;;;;5.68;2.28;;;7.00;99.90;;;;;;6186799;23;20019;-89
2024/03/02 07:24:02;;;;;;;3.22;2.28;;;7.10;99.90;;;;;;6173903;23;20016;-89
2024/03/02 07:26:31;;;;;;;4.93;1.88;;;7.30;99.90;;;;;;6187568;23;20016;-89
2024/03/02 07:28:56;;;;;;;2.25;1.67;;;7.40;99.90;;;;;;6185926;23;20012;-88
2024/03/02 07:31:22;;;;;;;3.83;2.38;;;7.50;99.90;;;;;;6186454;23;20024;-88
2024/03/02 07:33:48;;;;;;;2.83;2.13;;;7.60;99.90;;;;;;6186464;23;20081;-89
2024/03/02 07:36:13;;;;;;;2.58;1.70;;;7.70;99.90;;;;;;6187101;23;20007;-88
2024/03/02 07:38:40;;;;;;;3.65;2.03;;;8.10;99.90;;;;;;6201642;23;20375;-91
2024/03/02 07:41:05;;;;;;;6.68;2.35;;;8.10;99.90;;;;;;6190694;23;20515;-89
2024/03/02 07:43:34;;;;;;;3.08;1.73;;;8.10;99.90;;;;;;6186470;23;20020;-89
2024/03/02 07:46:02;;;;;;;4.05;2.10;;;8.50;99.90;;;;;;6186633;23;20095;-89
2024/03/02 07:48:28;;;;;;;2.58;1.70;;;8.60;99.90;;;;;;6186428;23;20393;-90
2024/03/02 07:51:02;;;;;;;3.60;1.60;;;8.80;99.90;;;;;;6187424;23;20018;-89
2024/03/02 07:53:28;;;;;;;3.92;1.50;;;8.80;99.90;;;;;;6172825;22;20016;-89
2024/03/02 07:55:53;;;;;;;4.38;1.90;;;9.00;99.90;;;;;;6161490;23;20019;-90
2024/03/02 07:58:19;;;;;;;3.70;2.10;;;9.20;99.90;;;;;;6187094;23;20019;-90
2024/03/02 08:00:45;;;;;;;3.65;1.50;;;9.30;99.90;;;;;;6182120;23;20011;-89
2024/03/02 08:03:11;;;;;;;1.92;1.40;;;9.40;99.90;;;;;;6211466;23;20008;-89
2024/03/02 08:05:37;;;;;;;3.40;1.80;;;9.70;99.90;;;;;;6186177;23;20023;-89
2024/03/02 08:08:03;;;;;;;2.40;1.80;;;9.80;99.90;;;;;;6184492;23;20350;-90
2024/03/02 08:10:29;;;;;;;4.25;1.80;;;9.70;99.90;;;;;;6185513;23;20020;-89
2024/03/02 08:12:55;;;;;;;2.10;1.38;;;9.80;99.90;;;;;;6185279;23;20023;-90
2024/03/02 08:15:20;;;;;;;4.35;1.55;;;10.10;99.90;;;;;;6172509;23;20047;-89
2024/03/02 08:17:49;;;;;;;2.60;1.75;;;10.00;99.90;;;;;;6185459;23;20000;-89
2024/03/02 08:20:15;;;;;;;2.40;1.52;;;10.30;99.90;;;;;;6189911;23;20016;-89
2024/03/02 08:22:40;;;;;;;9.18;2.15;;;10.20;99.90;;;;;;6154336;23;20084;-88
2024/03/02 08:25:06;;;;;;;4.53;1.27;;;10.40;99.90;;;;;;6184772;23;20079;-89
2024/03/02 08:27:32;;;;;;;2.58;1.52;;;10.50;99.90;;;;;;6186924;23;20529;-89
2024/03/02 08:29:59;;;;;;;2.78;1.65;;;10.60;99.90;;;;;;6185141;23;20008;-88
2024/03/02 08:32:25;;;;;;;2.40;1.48;;;10.40;99.90;;;;;;6184451;23;20016;-89
2024/03/02 08:34:51;;;;;;;3.58;1.67;;;10.50;99.90;;;;;;6185331;23;20015;-88
2024/03/02 08:37:16;;;;;;;3.30;1.60;;;10.60;99.90;;;;;;6210954;23;20004;-89
2024/03/02 08:39:42;;;;;;;3.15;1.88;;;10.50;99.90;;;;;;6211488;23;20327;-88
2024/03/02 08:42:07;;;;;;;1.98;1.30;;;10.80;99.90;;;;;;6187419;23;20008;-89
2024/03/02 08:44:33;;;;;;;3.55;1.08;;;11.10;99.90;;;;;;6212198;23;20012;-89
2024/03/02 08:46:59;;;;;;;2.88;1.35;;;11.10;99.90;;;;;;6156920;23;20008;-89
2024/03/02 08:49:24;;;;;;;3.25;1.52;;;11.30;99.90;;;;;;6185988;23;20394;-88
2024/03/02 08:51:54;;;;;;;7.28;1.67;;;11.20;99.90;;;;;;6186261;23;20066;-89
2024/03/02 08:54:21;;;;;;;1.42;1.20;;;11.50;99.90;;;;;;6185404;23;20409;-89
2024/03/02 08:56:48;;;;;;;3.97;1.65;;;11.40;99.90;;;;;;6184014;23;20201;-89
2024/03/02 08:59:14;;;;;;;3.42;1.17;;;11.40;99.90;;;;;;6186507;23;20020;-90
2024/03/02 09:01:41;;;;;;;2.13;0.80;;;11.50;99.90;;;;;;6185911;23;20016;-89
2024/03/02 09:04:08;;;;;;;2.08;1.20;;;11.80;99.90;;;;;;6187702;23;20015;-90
2024/03/02 09:06:34;;;;;;;1.65;0.90;;;11.70;99.90;;;;;;6188774;23;20077;-90
2024/03/02 09:09:00;;;;;;;3.03;1.40;;;11.80;99.90;;;;;;6186667;23;20095;-90
2024/03/02 09:11:25;;;;;;;4.45;1.15;;;12.20;99.90;;;;;;6213215;23;20385;-90
2024/03/02 09:13:51;;;;;;;4.88;1.52;;;12.40;99.90;;;;;;6186296;23;20058;-89
2024/03/02 09:16:17;;;;;;;2.78;1.33;;;12.40;99.90;;;;;;6188338;23;20098;-91
2024/03/02 09:18:43;;;;;;;2.10;0.90;;;12.20;99.90;;;;;;6214228;23;20048;-90
2024/03/02 09:21:10;;;;;;;1.75;0.90;;;12.40;99.90;;;;;;6185326;23;20012;-90
2024/03/02 09:23:35;;;;;;;1.20;1.10;;;12.20;99.90;;;;;;6187210;23;20585;-90
2024/03/02 09:26:03;;;;;;;1.92;1.10;;;12.40;99.90;;;;;;6184564;23;20016;-90
2024/03/02 09:28:29;;;;;;;3.05;1.02;;;12.50;99.90;;;;;;6187519;23;20496;-90
2024/03/02 09:30:54;;;;;;;2.15;1.08;;;12.50;99.90;;;;;;6185785;23;20016;-90
2024/03/02 09:33:20;;;;;;;2.25;0.95;;;12.70;99.90;;;;;;6184358;23;20016;-90
2024/03/02 09:35:45;;;;;;;5.15;1.17;;;12.80;99.90;;;;;;6186042;23;20008;-89
2024/03/02 09:38:11;;;;;;;1.63;1.25;;;13.20;99.90;;;;;;6184534;23;20446;-88
2024/03/02 09:40:36;;;;;;;1.33;0.88;;;13.00;99.90;;;;;;6188795;23;20040;-87
2024/03/02 09:43:03;;;;;;;2.05;1.02;;;13.20;99.90;;;;;;6184335;23;20342;-90
2024/03/02 09:45:28;;;;;;;1.60;0.90;;;13.00;99.90;;;;;;6216125;23;20027;-88
2024/03/02 09:47:54;;;;;;;2.78;1.10;;;13.10;99.90;;;;;;6189736;23;20012;-89
2024/03/02 09:50:20;;;;;;;2.13;1.13;;;13.70;99.90;;;;;;6191035;23;20042;-89
2024/03/02 09:52:49;;;;;;;1.83;0.73;;;13.70;99.90;;;;;;6189876;23;20332;-89
2024/03/02 09:55:17;;;;;;;1.70;0.60;;;13.70;99.90;;;;;;6167191;23;20005;-89
2024/03/02 09:57:42;;;;;;;1.92;1.20;;;13.70;99.90;;;;;;6192929;23;20008;-88
2024/03/02 10:00:08;;;;;;;1.70;0.77;;;13.70;99.90;;;;;;6215648;23;20070;-90
2024/03/02 10:02:34;;;;;;;3.13;1.27;;;13.90;99.90;;;;;;6190830;23;20008;-89
2024/03/02 10:05:00;;;;;;;3.85;0.90;;;14.00;99.90;;;;;;6213857;23;20394;-90
2024/03/02 10:07:25;;;;;;;2.53;0.90;;;14.10;99.90;;;;;;6190898;23;20016;-91
2024/03/02 10:09:51;;;;;;;2.75;1.00;;;14.40;99.90;;;;;;6191781;23;20008;-91
2024/03/02 10:12:18;;;;;;;3.70;1.50;;;14.50;99.90;;;;;;6189037;23;20013;-91
2024/03/02 10:14:44;;;;;;;2.50;0.93;;;14.50;97.70;;;;;;6189893;23;20063;-91
2024/03/02 10:17:11;;;;;;;0.43;0.40;;;14.40;98.70;;;;;;6189615;23;20063;-91
2024/03/02 10:19:37;;;;;;;1.20;0.65;;;14.60;98.10;;;;;;6190210;23;20027;-92
2024/03/02 10:22:05;;;;;;;1.20;0.80;;;14.60;97.90;;;;;;6168044;23;20005;-92
2024/03/02 10:24:49;;;;;;;2.08;0.80;;;14.90;98.20;;;;;;6190039;23;20038;-91
2024/03/02 10:27:18;;;;;;;1.63;0.70;;;15.00;97.30;;;;;;6184215;23;20028;-92
2024/03/02 10:29:46;;;;;;;3.20;0.90;;;15.20;97.40;;;;;;6188298;23;20084;-91
2024/03/02 10:32:11;;;;;;;1.67;0.73;;;15.20;96.40;;;;;;6187856;22;20008;-90
2024/03/02 10:34:39;;;;;;;2.83;0.68;;;15.10;97.00;;;;;;6186755;22;20357;-89
2024/03/02 10:37:07;;;;;;;1.38;0.90;;;15.00;96.50;;;;;;6187966;22;20000;-89
2024/03/02 10:39:35;;;;;;;2.15;0.88;;;15.00;96.00;;;;;;6186661;23;20095;-90
2024/03/02 10:42:03;;;;;;;1.30;0.70;;;14.90;96.80;;;;;;6212189;23;20015;-89
2024/03/02 10:44:28;;;;;;;0.82;0.70;;;15.20;96.50;;;;;;6171287;23;20024;-90
2024/03/02 10:46:57;;;;;;;2.70;1.00;;;15.20;95.50;;;;;;6181349;23;20009;-95
2024/03/02 10:49:58;;;;;;;1.58;0.70;;;15.50;95.40;;;;;;6171666;23;20034;-92
2024/03/02 10:52:24;;;;;;;2.53;0.35;;;15.50;94.80;;;;;;6189638;23;20016;-93
2024/03/02 10:54:53;;;;;;;0.88;0.50;;;15.50;94.90;;;;;;6188420;23;20032;-95
2024/03/02 10:57:20;;;;;;;2.35;0.93;;;15.40;94.40;;;;;;6186096;23;20051;-93
2024/03/02 10:59:57;;;;;;;2.13;0.70;;;15.50;95.00;;;;;;6180495;22;19996;-93
2024/03/02 11:02:23;;;;;;;0.90;0.68;;;15.50;93.50;;;;;;6190478;23;20087;-94
2024/03/02 11:04:50;;;;;;;1.88;0.90;;;15.60;94.60;;;;;;6189943;23;20039;-94
2024/03/02 11:07:16;;;;;;;3.38;1.00;;;15.70;94.20;;;;;;6183436;23;20473;-92
2024/03/02 11:09:44;;;;;;;4.07;0.70;;;15.70;93.70;;;;;;6180222;23;20012;-93
2024/03/02 11:20:15;;;;;;;2.22;0.77;;;16.20;93.00;;;;;;6073419;23;20016;-92
2024/03/02 11:22:40;;;;;;;2.35;0.70;;;16.00;94.40;;;;;;6084032;23;20013;-91
2024/03/02 11:25:10;;;;;;;1.33;0.60;;;16.40;92.20;;;;;;6145981;22;20482;-93
2024/03/02 11:27:53;;;;;;;3.78;0.98;;;16.50;92.00;;;;;;6183969;22;20419;-92
2024/03/02 11:33:29;;;;;;;1.75;0.65;;;16.40;91.40;;;;;;6219441;22;20028;-91
2024/03/02 11:35:54;;;;;;;4.15;0.63;;;16.60;92.60;;;;;;6173043;23;20005;-89
2024/03/02 11:38:20;;;;;;;1.17;0.68;;;17.00;91.70;;;;;;6185121;22;20009;-92
2024/03/02 11:40:46;;;;;;;1.52;0.60;;;17.20;91.90;;;;;;6186630;23;20103;-93
2024/03/02 11:43:11;;;;;;;1.05;0.57;;;17.40;90.70;;;;;;6171082;23;20455;-92
2024/03/02 11:45:50;;;;;;;1.40;0.70;;;17.20;90.40;;;;;;6187948;22;20012;-92
2024/03/02 11:48:17;;;;;;;1.63;0.60;;;17.50;88.30;;;;;;6163645;23;20060;-92
2024/03/02 11:50:49;;;;;;;1.27;0.70;;;17.30;90.10;;;;;;6188883;23;20091;-93
2024/03/02 11:53:15;;;;;;;1.92;0.60;;;17.50;89.30;;;;;;6171095;23;20091;-92
2024/03/02 11:55:41;;;;;;;1.33;0.80;;;17.40;88.90;;;;;;6185133;22;20036;-93
2024/03/02 11:58:09;;;;;;;1.15;0.55;;;17.60;88.90;;;;;;6174456;22;20016;-92
2024/03/02 12:00:35;;;;;;;1.48;0.60;;;17.60;89.10;;;;;;6161993;22;20028;-93
2024/03/02 12:03:04;;;;;;;0.85;0.75;;;17.70;86.30;;;;;;6186455;22;20282;-92
2024/03/02 12:05:30;;;;;;;0.70;0.57;;;17.80;88.80;;;;;;6185353;22;20490;-93
2024/03/02 12:08:02;;;;;;;2.15;0.93;;;17.80;88.10;;;;;;6186772;22;20043;-94
2024/03/02 12:10:28;;;;;;;1.15;0.80;;;17.70;89.10;;;;;;6185410;22;20016;-93
2024/03/02 12:13:14;;;;;;;1.25;0.60;;;17.80;86.50;;;;;;6170464;23;20019;-92
2024/03/02 12:15:40;;;;;;;0.80;0.63;;;17.60;87.40;;;;;;6186325;23;20023;-91
2024/03/02 12:18:06;;;;;;;1.45;0.75;;;17.70;89.20;;;;;;6184952;23;20076;-91
2024/03/02 12:20:32;;;;;;;3.97;0.60;;;17.70;85.50;;;;;;6184326;22;20439;-93
2024/03/02 12:22:59;;;;;;;3.45;0.80;;;17.80;86.50;;;;;;6190351;22;20439;-92
2024/03/02 12:25:24;;;;;;;1.23;0.75;;;17.60;87.20;;;;;;6187202;22;20103;-92
2024/03/02 12:27:51;;;;;;;1.35;0.57;;;17.60;87.70;;;;;;6183062;23;20017;-94
2024/03/02 12:30:17;;;;;;;0.98;0.60;;;17.50;87.20;;;;;;6175746;23;19997;-92
2024/03/02 12:32:44;;;;;;;0.93;0.70;;;17.40;87.00;;;;;;6163618;22;20113;-91
2024/03/02 12:35:14;;;;;;;1.02;0.70;;;17.40;87.40;;;;;;6163504;22;20009;-92
2024/03/02 12:37:47;;;;;;;1.65;0.60;;;17.30;86.30;;;;;;6168620;22;20020;-92
2024/03/02 12:40:13;;;;;;;1.42;0.88;;;17.30;88.10;;;;;;6192250;22;20753;-92
2024/03/02 12:42:39;;;;;;;1.63;0.75;;;17.50;86.40;;;;;;6172871;22;20387;-91
2024/03/02 12:45:06;;;;;;;1.02;0.50;;;17.40;86.80;;;;;;6158764;22;20060;-91
2024/03/02 12:47:34;;;;;;;2.78;0.82;;;17.30;88.10;;;;;;6184841;22;20021;-90
2024/03/02 12:49:59;;;;;;;1.02;0.60;;;17.70;85.50;;;;;;6171982;22;20012;-90
2024/03/02 12:52:25;;;;;;;3.45;0.60;;;17.40;85.70;;;;;;6158327;22;20023;-90
2024/03/02 12:54:52;;;;;;;0.68;0.50;;;17.40;86.80;;;;;;6184940;23;20535;-91
2024/03/02 12:57:21;;;;;;;0.90;0.75;;;17.50;87.00;;;;;;6159070;23;20036;-92
2024/03/02 12:59:47;;;;;;;2.88;0.68;;;17.40;87.70;;;;;;6182841;23;20012;-90
2024/03/02 13:02:19;;;;;;;0.45;0.30;;;17.40;86.80;;;;;;6182220;22;20024;-91
2024/03/02 13:04:50;;;;;;;1.35;0.60;;;17.40;87.70;;;;;;6182833;23;20037;-91
2024/03/02 13:07:16;;;;;;;0.70;0.70;;;17.30;89.20;;;;;;6183924;22;20001;-91
2024/03/02 13:09:41;;;;;;;2.03;0.50;;;17.40;88.00;;;;;;6181953;22;20017;-91